sensor_id;sensor_type;location;lat;lon;timestamp;P1;durP1;ratioP1;P2;durP2;ratioP2
64609;SDS011;51019;46.090;6.350;2023-03-31T00:00:45;17.40;;;6.47;;
64609;SDS011;51019;46.090;6.350;2023-03-31T00:03:17;16.60;;;6.43;;
64609;SDS011;51019;46.090;6.350;2023-03-31T00:05:48;15.93;;;5.88;;
64609;SDS011;51019;46.090;6.350;2023-03-31T00:08:22;20.40;;;7.32;;
64609;SDS011;51019;46.090;6.350;2023-03-31T00:10:57;21.17;;;7.20;;
64609;SDS011;51019;46.090;6.350;2023-03-31T00:15:57;19.20;;;6.10;;
64609;SDS011;51019;46.090;6.350;2023-03-31T00:18:26;20.07;;;6.67;;
64609;SDS011;51019;46.090;6.350;2023-03-31T00:20:58;16.70;;;6.15;;
64609;SDS011;51019;46.090;6.350;2023-03-31T00:23:34;18.92;;;5.75;;
64609;SDS011;51019;46.090;6.350;2023-03-31T00:26:02;14.50;;;5.00;;
64609;SDS011;51019;46.090;6.350;2023-03-31T00:28:31;17.30;;;4.90;;
64609;SDS011;51019;46.090;6.350;2023-03-31T00:30:59;17.70;;;4.95;;
64609;SDS011;51019;46.090;6.350;2023-03-31T00:33:27;17.23;;;5.85;;
64609;SDS011;51019;46.090;6.350;2023-03-31T00:35:56;15.63;;;4.85;;
64609;SDS011;51019;46.090;6.350;2023-03-31T00:38:26;16.88;;;5.57;;
64609;SDS011;51019;46.090;6.350;2023-03-31T00:40:56;14.95;;;4.82;;
64609;SDS011;51019;46.090;6.350;2023-03-31T00:43:26;18.35;;;5.07;;
64609;SDS011;51019;46.090;6.350;2023-03-31T00:46:00;15.65;;;4.80;;
64609;SDS011;51019;46.090;6.350;2023-03-31T00:48:45;16.25;;;5.68;;
64609;SDS011;51019;46.090;6.350;2023-03-31T00:51:15;20.63;;;5.78;;
64609;SDS011;51019;46.090;6.350;2023-03-31T00:53:46;16.55;;;4.80;;
64609;SDS011;51019;46.090;6.350;2023-03-31T00:56:23;12.90;;;3.92;;
64609;SDS011;51019;46.090;6.350;2023-03-31T00:58:52;13.90;;;4.10;;
64609;SDS011;51019;46.090;6.350;2023-03-31T01:01:27;15.05;;;4.25;;
64609;SDS011;51019;46.090;6.350;2023-03-31T01:03:55;15.93;;;4.70;;
64609;SDS011;51019;46.090;6.350;2023-03-31T01:06:24;16.33;;;4.50;;
64609;SDS011;51019;46.090;6.350;2023-03-31T01:08:57;15.45;;;4.53;;
64609;SDS011;51019;46.090;6.350;2023-03-31T01:11:30;14.43;;;4.22;;
64609;SDS011;51019;46.090;6.350;2023-03-31T01:13:57;13.55;;;3.80;;
64609;SDS011;51019;46.090;6.350;2023-03-31T01:16:25;16.35;;;4.32;;
64609;SDS011;51019;46.090;6.350;2023-03-31T01:18:53;12.80;;;4.05;;
64609;SDS011;51019;46.090;6.350;2023-03-31T01:24:33;16.33;;;4.47;;
64609;SDS011;51019;46.090;6.350;2023-03-31T01:36:58;17.63;;;5.78;;
64609;SDS011;51019;46.090;6.350;2023-03-31T01:39:58;16.63;;;5.43;;
64609;SDS011;51019;46.090;6.350;2023-03-31T01:42:35;14.30;;;5.05;;
64609;SDS011;51019;46.090;6.350;2023-03-31T01:45:12;16.17;;;5.28;;
64609;SDS011;51019;46.090;6.350;2023-03-31T01:47:48;14.95;;;5.50;;
64609;SDS011;51019;46.090;6.350;2023-03-31T01:50:22;14.25;;;5.13;;
64609;SDS011;51019;46.090;6.350;2023-03-31T01:52:55;15.57;;;5.63;;
64609;SDS011;51019;46.090;6.350;2023-03-31T01:55:33;16.38;;;5.47;;
64609;SDS011;51019;46.090;6.350;2023-03-31T01:58:04;16.00;;;5.30;;
64609;SDS011;51019;46.090;6.350;2023-03-31T02:00:37;18.67;;;5.20;;
64609;SDS011;51019;46.090;6.350;2023-03-31T02:03:09;17.48;;;5.05;;
64609;SDS011;51019;46.090;6.350;2023-03-31T02:05:46;19.65;;;5.20;;
64609;SDS011;51019;46.090;6.350;2023-03-31T02:08:20;16.77;;;5.18;;
64609;SDS011;51019;46.090;6.350;2023-03-31T02:10:54;18.70;;;4.90;;
64609;SDS011;51019;46.090;6.350;2023-03-31T02:13:23;15.50;;;5.32;;
64609;SDS011;51019;46.090;6.350;2023-03-31T02:15:54;17.35;;;5.82;;
64609;SDS011;51019;46.090;6.350;2023-03-31T02:18:26;17.98;;;5.28;;
64609;SDS011;51019;46.090;6.350;2023-03-31T02:20:57;19.20;;;5.72;;
64609;SDS011;51019;46.090;6.350;2023-03-31T02:23:27;17.30;;;4.65;;
64609;SDS011;51019;46.090;6.350;2023-03-31T02:26:00;19.98;;;4.55;;
64609;SDS011;51019;46.090;6.350;2023-03-31T02:28:33;15.23;;;4.65;;
64609;SDS011;51019;46.090;6.350;2023-03-31T02:31:04;14.68;;;4.20;;
64609;SDS011;51019;46.090;6.350;2023-03-31T02:33:39;14.75;;;3.88;;
64609;SDS011;51019;46.090;6.350;2023-03-31T02:36:08;16.20;;;4.38;;
64609;SDS011;51019;46.090;6.350;2023-03-31T02:38:37;15.82;;;4.18;;
64609;SDS011;51019;46.090;6.350;2023-03-31T02:41:10;12.52;;;3.50;;
64609;SDS011;51019;46.090;6.350;2023-03-31T02:43:38;12.02;;;3.50;;
64609;SDS011;51019;46.090;6.350;2023-03-31T02:46:05;30.55;;;4.30;;
64609;SDS011;51019;46.090;6.350;2023-03-31T02:48:35;13.40;;;3.60;;
64609;SDS011;51019;46.090;6.350;2023-03-31T02:54:11;15.43;;;3.47;;
64609;SDS011;51019;46.090;6.350;2023-03-31T02:59:50;14.73;;;3.83;;
64609;SDS011;51019;46.090;6.350;2023-03-31T03:02:34;11.82;;;3.67;;
64609;SDS011;51019;46.090;6.350;2023-03-31T03:05:17;12.75;;;3.42;;
64609;SDS011;51019;46.090;6.350;2023-03-31T03:07:50;11.95;;;3.10;;
64609;SDS011;51019;46.090;6.350;2023-03-31T03:10:27;13.98;;;3.28;;
64609;SDS011;51019;46.090;6.350;2023-03-31T03:13:03;13.50;;;3.20;;
64609;SDS011;51019;46.090;6.350;2023-03-31T03:15:42;15.25;;;3.15;;
64609;SDS011;51019;46.090;6.350;2023-03-31T03:18:14;13.50;;;3.13;;
64609;SDS011;51019;46.090;6.350;2023-03-31T03:20:42;13.50;;;2.80;;
64609;SDS011;51019;46.090;6.350;2023-03-31T03:23:13;16.75;;;3.17;;
64609;SDS011;51019;46.090;6.350;2023-03-31T03:25:41;13.00;;;3.05;;
64609;SDS011;51019;46.090;6.350;2023-03-31T03:28:08;15.38;;;3.33;;
64609;SDS011;51019;46.090;6.350;2023-03-31T03:30:41;12.18;;;2.70;;
64609;SDS011;51019;46.090;6.350;2023-03-31T03:33:09;12.35;;;3.00;;
64609;SDS011;51019;46.090;6.350;2023-03-31T03:35:41;15.48;;;2.70;;
64609;SDS011;51019;46.090;6.350;2023-03-31T03:38:09;13.40;;;3.35;;
64609;SDS011;51019;46.090;6.350;2023-03-31T03:40:36;12.10;;;3.00;;
64609;SDS011;51019;46.090;6.350;2023-03-31T03:43:04;12.45;;;3.05;;
64609;SDS011;51019;46.090;6.350;2023-03-31T03:45:32;11.57;;;3.08;;
64609;SDS011;51019;46.090;6.350;2023-03-31T03:48:02;9.57;;;3.20;;
64609;SDS011;51019;46.090;6.350;2023-03-31T03:50:30;15.40;;;2.92;;
64609;SDS011;51019;46.090;6.350;2023-03-31T03:53:01;9.98;;;2.60;;
64609;SDS011;51019;46.090;6.350;2023-03-31T03:55:28;10.38;;;2.78;;
64609;SDS011;51019;46.090;6.350;2023-03-31T03:57:56;11.50;;;2.25;;
64609;SDS011;51019;46.090;6.350;2023-03-31T04:00:24;13.18;;;3.53;;
64609;SDS011;51019;46.090;6.350;2023-03-31T04:02:52;12.40;;;3.03;;
64609;SDS011;51019;46.090;6.350;2023-03-31T04:05:22;11.68;;;2.85;;
64609;SDS011;51019;46.090;6.350;2023-03-31T04:07:50;12.82;;;2.70;;
64609;SDS011;51019;46.090;6.350;2023-03-31T04:10:18;11.32;;;2.28;;
64609;SDS011;51019;46.090;6.350;2023-03-31T04:12:48;8.90;;;2.33;;
64609;SDS011;51019;46.090;6.350;2023-03-31T04:15:16;9.80;;;2.40;;
64609;SDS011;51019;46.090;6.350;2023-03-31T04:17:45;10.25;;;2.33;;
64609;SDS011;51019;46.090;6.350;2023-03-31T04:20:15;10.30;;;2.47;;
64609;SDS011;51019;46.090;6.350;2023-03-31T04:22:45;11.77;;;2.90;;
64609;SDS011;51019;46.090;6.350;2023-03-31T04:25:15;11.90;;;2.40;;
64609;SDS011;51019;46.090;6.350;2023-03-31T04:27:44;13.63;;;2.78;;
64609;SDS011;51019;46.090;6.350;2023-03-31T04:30:14;14.90;;;3.65;;
64609;SDS011;51019;46.090;6.350;2023-03-31T04:32:46;12.97;;;2.80;;
64609;SDS011;51019;46.090;6.350;2023-03-31T04:35:14;12.05;;;2.97;;
64609;SDS011;51019;46.090;6.350;2023-03-31T04:37:46;13.68;;;3.42;;
64609;SDS011;51019;46.090;6.350;2023-03-31T04:40:15;14.00;;;4.45;;
64609;SDS011;51019;46.090;6.350;2023-03-31T04:42:44;11.48;;;2.83;;
64609;SDS011;51019;46.090;6.350;2023-03-31T04:45:11;12.82;;;3.22;;
64609;SDS011;51019;46.090;6.350;2023-03-31T04:47:39;14.85;;;4.85;;
64609;SDS011;51019;46.090;6.350;2023-03-31T04:50:08;14.80;;;3.60;;
64609;SDS011;51019;46.090;6.350;2023-03-31T04:52:38;14.30;;;3.70;;
64609;SDS011;51019;46.090;6.350;2023-03-31T04:55:08;13.02;;;3.65;;
64609;SDS011;51019;46.090;6.350;2023-03-31T04:57:36;13.25;;;3.88;;
64609;SDS011;51019;46.090;6.350;2023-03-31T05:00:04;13.45;;;3.35;;
64609;SDS011;51019;46.090;6.350;2023-03-31T05:02:33;13.70;;;4.43;;
64609;SDS011;51019;46.090;6.350;2023-03-31T05:05:01;14.88;;;3.90;;
64609;SDS011;51019;46.090;6.350;2023-03-31T05:07:30;12.88;;;3.17;;
64609;SDS011;51019;46.090;6.350;2023-03-31T05:09:57;12.27;;;3.35;;
64609;SDS011;51019;46.090;6.350;2023-03-31T05:12:27;13.45;;;3.55;;
64609;SDS011;51019;46.090;6.350;2023-03-31T05:14:57;12.98;;;3.78;;
64609;SDS011;51019;46.090;6.350;2023-03-31T05:17:25;12.57;;;3.67;;
64609;SDS011;51019;46.090;6.350;2023-03-31T05:19:53;13.00;;;3.80;;
64609;SDS011;51019;46.090;6.350;2023-03-31T05:22:21;13.63;;;2.92;;
64609;SDS011;51019;46.090;6.350;2023-03-31T05:24:48;11.65;;;3.22;;
64609;SDS011;51019;46.090;6.350;2023-03-31T05:27:15;13.25;;;3.38;;
64609;SDS011;51019;46.090;6.350;2023-03-31T05:29:45;13.70;;;3.25;;
64609;SDS011;51019;46.090;6.350;2023-03-31T05:32:12;14.30;;;3.28;;
64609;SDS011;51019;46.090;6.350;2023-03-31T05:34:39;12.30;;;3.17;;
64609;SDS011;51019;46.090;6.350;2023-03-31T05:37:08;11.68;;;3.22;;
64609;SDS011;51019;46.090;6.350;2023-03-31T05:39:35;13.95;;;2.97;;
64609;SDS011;51019;46.090;6.350;2023-03-31T05:42:02;10.50;;;2.78;;
64609;SDS011;51019;46.090;6.350;2023-03-31T05:44:32;10.85;;;3.00;;
64609;SDS011;51019;46.090;6.350;2023-03-31T05:47:01;14.27;;;2.95;;
64609;SDS011;51019;46.090;6.350;2023-03-31T05:49:28;10.43;;;2.70;;
64609;SDS011;51019;46.090;6.350;2023-03-31T05:51:55;14.48;;;3.03;;
64609;SDS011;51019;46.090;6.350;2023-03-31T05:54:23;11.65;;;2.70;;
64609;SDS011;51019;46.090;6.350;2023-03-31T05:56:51;12.35;;;2.92;;
64609;SDS011;51019;46.090;6.350;2023-03-31T05:59:18;15.57;;;3.95;;
64609;SDS011;51019;46.090;6.350;2023-03-31T06:01:46;12.85;;;3.58;;
64609;SDS011;51019;46.090;6.350;2023-03-31T06:04:16;13.30;;;3.20;;
64609;SDS011;51019;46.090;6.350;2023-03-31T06:06:43;15.57;;;3.28;;
64609;SDS011;51019;46.090;6.350;2023-03-31T06:09:14;16.67;;;5.22;;
64609;SDS011;51019;46.090;6.350;2023-03-31T06:11:41;12.73;;;3.85;;
64609;SDS011;51019;46.090;6.350;2023-03-31T06:14:09;12.82;;;3.58;;
64609;SDS011;51019;46.090;6.350;2023-03-31T06:16:36;12.60;;;3.40;;
64609;SDS011;51019;46.090;6.350;2023-03-31T06:19:04;10.82;;;3.15;;
64609;SDS011;51019;46.090;6.350;2023-03-31T06:21:33;14.10;;;3.85;;
64609;SDS011;51019;46.090;6.350;2023-03-31T06:24:01;13.85;;;3.35;;
64609;SDS011;51019;46.090;6.350;2023-03-31T06:26:28;13.10;;;3.63;;
64609;SDS011;51019;46.090;6.350;2023-03-31T06:28:55;14.90;;;3.65;;
64609;SDS011;51019;46.090;6.350;2023-03-31T06:31:23;13.00;;;4.00;;
64609;SDS011;51019;46.090;6.350;2023-03-31T06:33:51;14.30;;;3.55;;
64609;SDS011;51019;46.090;6.350;2023-03-31T06:36:18;13.85;;;4.00;;
64609;SDS011;51019;46.090;6.350;2023-03-31T06:38:49;17.60;;;3.85;;
64609;SDS011;51019;46.090;6.350;2023-03-31T06:41:17;13.40;;;4.38;;
64609;SDS011;51019;46.090;6.350;2023-03-31T06:43:45;12.68;;;3.80;;
64609;SDS011;51019;46.090;6.350;2023-03-31T06:46:12;11.07;;;3.30;;
64609;SDS011;51019;46.090;6.350;2023-03-31T06:48:40;13.35;;;3.40;;
64609;SDS011;51019;46.090;6.350;2023-03-31T06:51:08;12.25;;;3.28;;
64609;SDS011;51019;46.090;6.350;2023-03-31T06:53:36;16.48;;;3.95;;
64609;SDS011;51019;46.090;6.350;2023-03-31T06:56:05;15.75;;;3.60;;
64609;SDS011;51019;46.090;6.350;2023-03-31T06:58:36;13.90;;;3.72;;
64609;SDS011;51019;46.090;6.350;2023-03-31T07:01:04;16.20;;;4.22;;
64609;SDS011;51019;46.090;6.350;2023-03-31T07:03:32;14.50;;;4.53;;
64609;SDS011;51019;46.090;6.350;2023-03-31T07:05:59;16.98;;;4.65;;
64609;SDS011;51019;46.090;6.350;2023-03-31T07:08:27;15.88;;;5.00;;
64609;SDS011;51019;46.090;6.350;2023-03-31T07:10:55;17.20;;;4.57;;
64609;SDS011;51019;46.090;6.350;2023-03-31T07:13:26;16.38;;;4.72;;
64609;SDS011;51019;46.090;6.350;2023-03-31T07:15:54;15.65;;;5.30;;
64609;SDS011;51019;46.090;6.350;2023-03-31T07:18:21;13.98;;;4.55;;
64609;SDS011;51019;46.090;6.350;2023-03-31T07:20:50;18.90;;;5.57;;
64609;SDS011;51019;46.090;6.350;2023-03-31T07:23:18;19.83;;;6.18;;
64609;SDS011;51019;46.090;6.350;2023-03-31T07:25:46;22.77;;;6.63;;
64609;SDS011;51019;46.090;6.350;2023-03-31T07:28:14;16.55;;;6.22;;
64609;SDS011;51019;46.090;6.350;2023-03-31T07:30:43;16.30;;;5.55;;
64609;SDS011;51019;46.090;6.350;2023-03-31T07:33:11;19.35;;;5.65;;
64609;SDS011;51019;46.090;6.350;2023-03-31T07:35:39;15.57;;;5.47;;
64609;SDS011;51019;46.090;6.350;2023-03-31T07:38:07;20.25;;;6.43;;
64609;SDS011;51019;46.090;6.350;2023-03-31T07:40:35;16.92;;;5.93;;
64609;SDS011;51019;46.090;6.350;2023-03-31T07:43:03;19.77;;;6.22;;
64609;SDS011;51019;46.090;6.350;2023-03-31T07:45:31;16.45;;;6.70;;
64609;SDS011;51019;46.090;6.350;2023-03-31T07:48:01;18.63;;;6.43;;
64609;SDS011;51019;46.090;6.350;2023-03-31T07:50:28;20.00;;;7.30;;
64609;SDS011;51019;46.090;6.350;2023-03-31T07:52:56;17.98;;;6.68;;
64609;SDS011;51019;46.090;6.350;2023-03-31T07:55:23;19.58;;;6.60;;
64609;SDS011;51019;46.090;6.350;2023-03-31T07:57:51;19.88;;;6.88;;
64609;SDS011;51019;46.090;6.350;2023-03-31T08:00:19;18.08;;;6.75;;
64609;SDS011;51019;46.090;6.350;2023-03-31T08:02:46;16.42;;;6.70;;
64609;SDS011;51019;46.090;6.350;2023-03-31T08:05:16;18.95;;;7.05;;
64609;SDS011;51019;46.090;6.350;2023-03-31T08:07:45;18.25;;;6.90;;
64609;SDS011;51019;46.090;6.350;2023-03-31T08:10:14;20.35;;;6.80;;
64609;SDS011;51019;46.090;6.350;2023-03-31T08:12:44;18.52;;;6.90;;
64609;SDS011;51019;46.090;6.350;2023-03-31T08:15:12;18.70;;;7.38;;
64609;SDS011;51019;46.090;6.350;2023-03-31T08:17:39;17.95;;;6.85;;
64609;SDS011;51019;46.090;6.350;2023-03-31T08:20:07;17.85;;;7.38;;
64609;SDS011;51019;46.090;6.350;2023-03-31T08:22:37;17.13;;;7.07;;
64609;SDS011;51019;46.090;6.350;2023-03-31T08:25:06;21.33;;;6.88;;
64609;SDS011;51019;46.090;6.350;2023-03-31T08:27:35;18.08;;;7.75;;
64609;SDS011;51019;46.090;6.350;2023-03-31T08:30:04;18.02;;;6.88;;
64609;SDS011;51019;46.090;6.350;2023-03-31T08:32:34;16.95;;;6.80;;
64609;SDS011;51019;46.090;6.350;2023-03-31T08:35:02;21.25;;;6.88;;
64609;SDS011;51019;46.090;6.350;2023-03-31T08:37:29;19.30;;;8.02;;
64609;SDS011;51019;46.090;6.350;2023-03-31T08:39:59;19.85;;;7.97;;
64609;SDS011;51019;46.090;6.350;2023-03-31T08:42:31;18.75;;;7.35;;
64609;SDS011;51019;46.090;6.350;2023-03-31T08:45:05;20.80;;;7.45;;
64609;SDS011;51019;46.090;6.350;2023-03-31T08:47:42;19.88;;;8.10;;
64609;SDS011;51019;46.090;6.350;2023-03-31T08:50:12;17.55;;;7.43;;
64609;SDS011;51019;46.090;6.350;2023-03-31T08:52:43;18.23;;;8.50;;
64609;SDS011;51019;46.090;6.350;2023-03-31T08:55:18;18.97;;;7.83;;
64609;SDS011;51019;46.090;6.350;2023-03-31T08:57:57;20.95;;;8.57;;
64609;SDS011;51019;46.090;6.350;2023-03-31T09:00:34;23.15;;;8.30;;
64609;SDS011;51019;46.090;6.350;2023-03-31T09:03:14;20.13;;;8.43;;
64609;SDS011;51019;46.090;6.350;2023-03-31T09:05:51;20.75;;;8.82;;
64609;SDS011;51019;46.090;6.350;2023-03-31T09:08:30;20.98;;;7.65;;
64609;SDS011;51019;46.090;6.350;2023-03-31T09:11:03;22.20;;;9.07;;
64609;SDS011;51019;46.090;6.350;2023-03-31T09:16:32;20.13;;;9.10;;
64609;SDS011;51019;46.090;6.350;2023-03-31T09:19:07;20.67;;;9.15;;
64609;SDS011;51019;46.090;6.350;2023-03-31T09:21:42;20.13;;;8.70;;
64609;SDS011;51019;46.090;6.350;2023-03-31T09:24:12;20.38;;;8.90;;
64609;SDS011;51019;46.090;6.350;2023-03-31T09:26:46;22.48;;;9.48;;
64609;SDS011;51019;46.090;6.350;2023-03-31T09:29:20;22.20;;;9.80;;
64609;SDS011;51019;46.090;6.350;2023-03-31T09:31:51;19.83;;;8.70;;
64609;SDS011;51019;46.090;6.350;2023-03-31T09:34:23;19.13;;;9.02;;
64609;SDS011;51019;46.090;6.350;2023-03-31T09:36:51;20.67;;;9.15;;
64609;SDS011;51019;46.090;6.350;2023-03-31T09:39:18;24.45;;;9.13;;
64609;SDS011;51019;46.090;6.350;2023-03-31T09:41:49;20.70;;;8.63;;
64609;SDS011;51019;46.090;6.350;2023-03-31T09:44:21;16.17;;;6.93;;
64609;SDS011;51019;46.090;6.350;2023-03-31T09:46:53;20.55;;;8.65;;
64609;SDS011;51019;46.090;6.350;2023-03-31T09:49:22;19.33;;;8.15;;
64609;SDS011;51019;46.090;6.350;2023-03-31T09:51:57;21.60;;;8.50;;
64609;SDS011;51019;46.090;6.350;2023-03-31T09:54:29;19.08;;;8.07;;
64609;SDS011;51019;46.090;6.350;2023-03-31T09:57:10;19.08;;;8.45;;
64609;SDS011;51019;46.090;6.350;2023-03-31T09:59:40;18.17;;;7.50;;
64609;SDS011;51019;46.090;6.350;2023-03-31T10:05:05;19.50;;;7.65;;
64609;SDS011;51019;46.090;6.350;2023-03-31T10:07:44;20.55;;;7.95;;
64609;SDS011;51019;46.090;6.350;2023-03-31T10:10:16;20.10;;;7.93;;
64609;SDS011;51019;46.090;6.350;2023-03-31T10:12:54;18.38;;;6.97;;
64609;SDS011;51019;46.090;6.350;2023-03-31T10:15:24;18.10;;;6.88;;
64609;SDS011;51019;46.090;6.350;2023-03-31T10:17:53;17.70;;;6.65;;
64609;SDS011;51019;46.090;6.350;2023-03-31T10:20:30;16.52;;;6.80;;
64609;SDS011;51019;46.090;6.350;2023-03-31T10:23:02;16.67;;;7.30;;
64609;SDS011;51019;46.090;6.350;2023-03-31T10:25:32;19.65;;;7.05;;
64609;SDS011;51019;46.090;6.350;2023-03-31T10:28:02;17.17;;;6.18;;
64609;SDS011;51019;46.090;6.350;2023-03-31T10:30:32;21.33;;;7.38;;
64609;SDS011;51019;46.090;6.350;2023-03-31T10:33:04;16.10;;;6.07;;
64609;SDS011;51019;46.090;6.350;2023-03-31T10:35:33;17.65;;;6.55;;
64609;SDS011;51019;46.090;6.350;2023-03-31T10:38:03;19.70;;;7.65;;
64609;SDS011;51019;46.090;6.350;2023-03-31T10:40:33;16.33;;;6.95;;
64609;SDS011;51019;46.090;6.350;2023-03-31T10:43:07;21.92;;;6.88;;
64609;SDS011;51019;46.090;6.350;2023-03-31T10:45:41;18.17;;;6.75;;
64609;SDS011;51019;46.090;6.350;2023-03-31T10:48:16;17.23;;;7.18;;
64609;SDS011;51019;46.090;6.350;2023-03-31T10:50:46;15.40;;;6.30;;
64609;SDS011;51019;46.090;6.350;2023-03-31T10:53:14;16.23;;;6.07;;
64609;SDS011;51019;46.090;6.350;2023-03-31T10:55:45;18.33;;;6.22;;
64609;SDS011;51019;46.090;6.350;2023-03-31T10:58:28;15.93;;;5.95;;
64609;SDS011;51019;46.090;6.350;2023-03-31T11:01:11;19.77;;;7.00;;
64609;SDS011;51019;46.090;6.350;2023-03-31T11:03:58;15.32;;;6.22;;
64609;SDS011;51019;46.090;6.350;2023-03-31T11:06:46;19.10;;;6.32;;
64609;SDS011;51019;46.090;6.350;2023-03-31T11:09:29;16.52;;;5.95;;
64609;SDS011;51019;46.090;6.350;2023-03-31T11:12:06;16.25;;;6.25;;
64609;SDS011;51019;46.090;6.350;2023-03-31T11:14:46;17.85;;;8.10;;
64609;SDS011;51019;46.090;6.350;2023-03-31T11:17:24;15.63;;;6.10;;
64609;SDS011;51019;46.090;6.350;2023-03-31T11:20:01;23.73;;;10.38;;
64609;SDS011;51019;46.090;6.350;2023-03-31T11:22:45;25.30;;;12.10;;
64609;SDS011;51019;46.090;6.350;2023-03-31T11:25:26;18.90;;;7.07;;
64609;SDS011;51019;46.090;6.350;2023-03-31T11:28:16;16.70;;;6.00;;
64609;SDS011;51019;46.090;6.350;2023-03-31T11:30:53;16.08;;;6.88;;
64609;SDS011;51019;46.090;6.350;2023-03-31T11:33:33;16.35;;;5.50;;
64609;SDS011;51019;46.090;6.350;2023-03-31T11:36:14;15.75;;;6.10;;
64609;SDS011;51019;46.090;6.350;2023-03-31T11:38:57;15.95;;;4.93;;
64609;SDS011;51019;46.090;6.350;2023-03-31T11:41:36;14.98;;;4.65;;
64609;SDS011;51019;46.090;6.350;2023-03-31T11:44:08;17.48;;;5.18;;
64609;SDS011;51019;46.090;6.350;2023-03-31T11:46:45;14.20;;;4.70;;
64609;SDS011;51019;46.090;6.350;2023-03-31T11:49:17;15.27;;;5.20;;
64609;SDS011;51019;46.090;6.350;2023-03-31T11:51:50;14.10;;;5.00;;
64609;SDS011;51019;46.090;6.350;2023-03-31T11:56:54;15.52;;;4.50;;
64609;SDS011;51019;46.090;6.350;2023-03-31T11:59:22;15.98;;;4.43;;
64609;SDS011;51019;46.090;6.350;2023-03-31T12:01:58;15.65;;;3.70;;
64609;SDS011;51019;46.090;6.350;2023-03-31T12:04:37;14.10;;;4.40;;
64609;SDS011;51019;46.090;6.350;2023-03-31T12:07:12;12.93;;;3.58;;
64609;SDS011;51019;46.090;6.350;2023-03-31T12:09:50;13.05;;;3.90;;
64609;SDS011;51019;46.090;6.350;2023-03-31T12:12:27;11.82;;;3.03;;
64609;SDS011;51019;46.090;6.350;2023-03-31T12:14:58;15.45;;;3.90;;
64609;SDS011;51019;46.090;6.350;2023-03-31T12:17:34;13.93;;;3.17;;
64609;SDS011;51019;46.090;6.350;2023-03-31T12:20:03;10.90;;;3.15;;
64609;SDS011;51019;46.090;6.350;2023-03-31T12:22:38;12.98;;;3.53;;
64609;SDS011;51019;46.090;6.350;2023-03-31T12:25:10;12.55;;;3.50;;
64609;SDS011;51019;46.090;6.350;2023-03-31T12:27:40;12.52;;;4.05;;
64609;SDS011;51019;46.090;6.350;2023-03-31T12:30:14;13.07;;;3.90;;
64609;SDS011;51019;46.090;6.350;2023-03-31T12:32:48;14.68;;;4.72;;
64609;SDS011;51019;46.090;6.350;2023-03-31T12:35:22;17.15;;;4.65;;
64609;SDS011;51019;46.090;6.350;2023-03-31T12:40:54;13.47;;;3.83;;
64609;SDS011;51019;46.090;6.350;2023-03-31T12:49:14;13.13;;;3.40;;
64609;SDS011;51019;46.090;6.350;2023-03-31T12:51:57;13.60;;;3.80;;
64609;SDS011;51019;46.090;6.350;2023-03-31T12:54:48;14.07;;;3.95;;
64609;SDS011;51019;46.090;6.350;2023-03-31T12:57:27;14.57;;;3.95;;
64609;SDS011;51019;46.090;6.350;2023-03-31T13:00:17;14.60;;;3.83;;
64609;SDS011;51019;46.090;6.350;2023-03-31T13:02:50;15.77;;;4.47;;
64609;SDS011;51019;46.090;6.350;2023-03-31T13:05:59;13.18;;;3.80;;
64609;SDS011;51019;46.090;6.350;2023-03-31T13:11:20;18.88;;;4.88;;
64609;SDS011;51019;46.090;6.350;2023-03-31T13:13:57;14.43;;;3.92;;
64609;SDS011;51019;46.090;6.350;2023-03-31T13:16:27;17.63;;;4.13;;
64609;SDS011;51019;46.090;6.350;2023-03-31T13:18:55;15.20;;;4.07;;
64609;SDS011;51019;46.090;6.350;2023-03-31T13:21:25;13.65;;;3.35;;
64609;SDS011;51019;46.090;6.350;2023-03-31T13:23:53;12.90;;;3.63;;
64609;SDS011;51019;46.090;6.350;2023-03-31T13:32:06;15.02;;;4.38;;
64609;SDS011;51019;46.090;6.350;2023-03-31T13:34:46;16.63;;;3.63;;
64609;SDS011;51019;46.090;6.350;2023-03-31T13:37:22;14.50;;;3.90;;
64609;SDS011;51019;46.090;6.350;2023-03-31T13:43:27;14.75;;;3.75;;
64609;SDS011;51019;46.090;6.350;2023-03-31T13:49:23;13.05;;;3.80;;
64609;SDS011;51019;46.090;6.350;2023-03-31T13:52:08;12.35;;;3.28;;
64609;SDS011;51019;46.090;6.350;2023-03-31T13:57:51;15.45;;;3.30;;
64609;SDS011;51019;46.090;6.350;2023-03-31T14:00:45;13.90;;;3.05;;
64609;SDS011;51019;46.090;6.350;2023-03-31T14:03:21;14.10;;;3.35;;
64609;SDS011;51019;46.090;6.350;2023-03-31T14:05:56;17.67;;;3.33;;
64609;SDS011;51019;46.090;6.350;2023-03-31T14:08:31;11.73;;;3.40;;
64609;SDS011;51019;46.090;6.350;2023-03-31T14:11:16;17.85;;;4.72;;
64609;SDS011;51019;46.090;6.350;2023-03-31T14:13:57;10.80;;;2.90;;
64609;SDS011;51019;46.090;6.350;2023-03-31T14:16:31;13.95;;;3.15;;
64609;SDS011;51019;46.090;6.350;2023-03-31T14:21:37;12.90;;;3.00;;
64609;SDS011;51019;46.090;6.350;2023-03-31T14:24:12;12.50;;;3.00;;
64609;SDS011;51019;46.090;6.350;2023-03-31T14:26:55;14.15;;;3.00;;
64609;SDS011;51019;46.090;6.350;2023-03-31T14:29:30;13.25;;;2.95;;
64609;SDS011;51019;46.090;6.350;2023-03-31T14:32:10;13.73;;;3.25;;
64609;SDS011;51019;46.090;6.350;2023-03-31T14:34:53;13.73;;;3.25;;
64609;SDS011;51019;46.090;6.350;2023-03-31T14:37:30;12.15;;;3.00;;
64609;SDS011;51019;46.090;6.350;2023-03-31T14:39:59;15.48;;;3.65;;
64609;SDS011;51019;46.090;6.350;2023-03-31T14:42:34;12.25;;;3.15;;
64609;SDS011;51019;46.090;6.350;2023-03-31T14:45:05;15.52;;;3.55;;
64609;SDS011;51019;46.090;6.350;2023-03-31T14:47:41;15.15;;;3.42;;
64609;SDS011;51019;46.090;6.350;2023-03-31T14:50:18;13.43;;;3.17;;
64609;SDS011;51019;46.090;6.350;2023-03-31T14:52:46;15.10;;;3.00;;
64609;SDS011;51019;46.090;6.350;2023-03-31T14:55:15;15.10;;;4.47;;
64609;SDS011;51019;46.090;6.350;2023-03-31T14:57:45;16.25;;;3.60;;
64609;SDS011;51019;46.090;6.350;2023-03-31T15:00:17;12.63;;;3.42;;
64609;SDS011;51019;46.090;6.350;2023-03-31T15:02:50;14.98;;;3.35;;
64609;SDS011;51019;46.090;6.350;2023-03-31T15:05:20;15.32;;;3.30;;
64609;SDS011;51019;46.090;6.350;2023-03-31T15:07:55;10.65;;;2.50;;
64609;SDS011;51019;46.090;6.350;2023-03-31T15:10:23;13.48;;;2.60;;
64609;SDS011;51019;46.090;6.350;2023-03-31T15:12:57;10.98;;;2.65;;
64609;SDS011;51019;46.090;6.350;2023-03-31T15:15:25;14.88;;;2.58;;
64609;SDS011;51019;46.090;6.350;2023-03-31T15:17:53;11.93;;;2.35;;
64609;SDS011;51019;46.090;6.350;2023-03-31T15:20:24;9.50;;;2.03;;
64609;SDS011;51019;46.090;6.350;2023-03-31T15:22:55;15.88;;;3.30;;
64609;SDS011;51019;46.090;6.350;2023-03-31T15:25:24;11.85;;;2.05;;
64609;SDS011;51019;46.090;6.350;2023-03-31T15:27:57;9.38;;;1.77;;
64609;SDS011;51019;46.090;6.350;2023-03-31T15:30:28;7.15;;;1.40;;
64609;SDS011;51019;46.090;6.350;2023-03-31T15:32:56;8.73;;;1.50;;
64609;SDS011;51019;46.090;6.350;2023-03-31T15:35:26;9.27;;;1.83;;
64609;SDS011;51019;46.090;6.350;2023-03-31T15:37:57;7.38;;;1.30;;
64609;SDS011;51019;46.090;6.350;2023-03-31T15:40:26;8.07;;;1.88;;
64609;SDS011;51019;46.090;6.350;2023-03-31T15:42:57;9.60;;;1.45;;
64609;SDS011;51019;46.090;6.350;2023-03-31T15:45:36;3.10;;;1.05;;
64609;SDS011;51019;46.090;6.350;2023-03-31T15:48:14;6.80;;;1.17;;
64609;SDS011;51019;46.090;6.350;2023-03-31T15:50:48;7.75;;;1.40;;
64609;SDS011;51019;46.090;6.350;2023-03-31T15:53:24;7.07;;;1.30;;
64609;SDS011;51019;46.090;6.350;2023-03-31T15:55:54;5.25;;;1.13;;
64609;SDS011;51019;46.090;6.350;2023-03-31T15:58:44;8.48;;;1.40;;
64609;SDS011;51019;46.090;6.350;2023-03-31T16:01:13;6.15;;;1.17;;
64609;SDS011;51019;46.090;6.350;2023-03-31T16:03:45;8.45;;;1.40;;